CheckWX is a tool to help pilots better visualize weather data.  It is not intended as a substitute for an official pre-flight weather briefing.

03:52:32 UTC

DNCA METAR
Margaret Ekpo International Airport
Calabar, Nigeria
Current

11 hours ago

DNCA 251700Z 23011KT 8000 BKN011 FEW021CB 29/25 Q1010
Observed
May-25 @ 17:00 UTC
Wind
  • 230° at 11 KTS
Visibility
7,998 meters
Flight Rules
MVFR
Cloud Levels
  • Broken at 1,100' AGL
  • Few at 2,100' AGL
Temperature
29°C / 84°F
Dewpoint
25°C / 77°F
Heat Index
34°C / 94°F
Humidity
79%
Altimeter
29.82" Hg
Pressure
1009.92 hPa
Previous

14 hours ago

DNCA 251400Z 22010KT 9999 BKN012 FEW021CB 32/26 Q1010
Observed
May-25 @ 14:00 UTC
Wind
  • 220° at 10 KTS
Visibility
10,000+ meters
Flight Rules
MVFR
Cloud Levels
  • Broken at 1,200' AGL
  • Few at 2,100' AGL
Temperature
32°C / 90°F
Dewpoint
26°C / 79°F
Heat Index
42°C / 107°F
Humidity
71%
Altimeter
29.82" Hg
Pressure
1009.92 hPa
Previous

15 hours ago

DNCA 251300Z 23008KT 9999 BKN012 31/25 Q1011
Observed
May-25 @ 13:00 UTC
Wind
  • 230° at 8 KTS
Visibility
10,000+ meters
Flight Rules
MVFR
Cloud Levels
  • Broken at 1,200' AGL
Temperature
31°C / 88°F
Dewpoint
25°C / 77°F
Heat Index
38°C / 100°F
Humidity
70%
Altimeter
29.85" Hg
Pressure
1010.92 hPa